Terminal Aerodrome Forecast
Issued by NWS Cleveland, OH

Home | Current Version | Previous Version | Graphics & Text | Print | Product List | Glossary On
Versions: 1 2 3 4 5 6 7 8 9 10 11 12
000
FTUS41 KCLE 032335
TAFTOL
TAF
KTOL 032335Z 0400/0424 08007KT P6SM BKN200
     FM040200 34002KT P6SM SCT250
      TEMPO 0410/0413 4SM BR
     FM041400 32005KT P6SM SKC=

USA.gov is the U.S. government's official web portal to all federal, state and local government web resources and services.